ENVE weather

Valle Airfield Åraksøyne
Aust-Agder, Norway

Public forecast

Using degrees Celsius for public forecast. Weather courtesy of forecast.io.

Closest aviation weather report (METAR) to Valle Airfield Åraksøyne

Closest report is Kristiansand Airport, 52.4 nm (97.0 km) SSE. Retrieved 2020/02/18 12:20 UTC (0 seconds ago):

ENCN 181220Z 29007KT 250V330 9999 FEW020 SCT030TCU 06/02 Q0998

Closest aviation forecast (TAF) to Valle Airfield Åraksøyne

Forecast is more than 12 hours old.

Closest forecast is Kristiansand Airport, 52.4 nm (97.0 km) SSE. Retrieved 2016/05/06 12:39 UTC (4 years ago):

TAF TAF ENCN 061100Z 0612/0712 14008KT 9999 FEW040